Time;durP1;ratioP1;P1;durP2;ratioP2;P2;SDS_P1;SDS_P2;PMS_P1;PMS_P2;Temp;Humidity;BMP_temperature;BMP_pressure;BME280_temperature;BME280_humidity;BME280_pressure;Samples;Min_cycle;Max_cycle;Signal;HPM_P1;HPM_P2
2021/09/24 00:01:40;;;;;;;;;46.25;39.25;;;;;13.97;74.07;101545.03;5079554;28;45167;-76
2021/09/24 00:04:06;;;;;;;;;47.25;38.50;;;;;13.93;74.06;101543.75;5079699;28;45207;-75
2021/09/24 00:06:32;;;;;;;;;47.50;39.75;;;;;13.91;73.92;101543.09;5079762;28;45433;-76
2021/09/24 00:08:57;;;;;;;;;45.25;38.75;;;;;13.84;74.08;101546.47;5079471;28;45271;-76
2021/09/24 00:11:23;;;;;;;;;44.75;38.00;;;;;13.76;73.83;101536.66;5079773;27;45262;-76
2021/09/24 00:13:48;;;;;;;;;46.00;39.25;;;;;13.71;73.73;101546.22;5079586;28;45263;-75
2021/09/24 00:16:14;;;;;;;;;45.00;37.50;;;;;13.69;73.70;101559.75;5079803;27;45336;-75
2021/09/24 00:18:39;;;;;;;;;43.50;38.00;;;;;13.63;73.82;101539.06;5079567;28;45474;-76
2021/09/24 00:21:05;;;;;;;;;44.50;38.00;;;;;13.64;73.83;101546.06;5079485;28;46309;-76
2021/09/24 00:23:31;;;;;;;;;41.75;36.00;;;;;13.60;74.04;101545.59;5079329;27;45350;-75
2021/09/24 00:25:56;;;;;;;;;41.75;37.25;;;;;13.60;73.85;101536.75;5079670;28;45291;-75
2021/09/24 00:28:22;;;;;;;;;45.50;37.75;;;;;13.55;73.95;101533.75;5079366;27;45542;-75
2021/09/24 00:30:48;;;;;;;;;42.50;36.25;;;;;13.53;73.80;101536.59;5066397;28;46070;-76
2021/09/24 00:33:13;;;;;;;;;46.00;38.25;;;;;13.48;74.03;101528.25;5059051;28;45276;-76
2021/09/24 00:35:39;;;;;;;;;47.00;38.75;;;;;13.47;74.25;101519.41;5059333;28;45263;-75
2021/09/24 00:38:04;;;;;;;;;40.25;35.50;;;;;13.45;74.23;101513.44;5058766;28;45292;-76
2021/09/24 00:40:34;;;;;;;;;46.75;38.50;;;;;13.44;74.18;101516.28;5059016;28;45483;-76
2021/09/24 00:42:59;;;;;;;;;44.50;37.75;;;;;13.42;74.25;101516.44;5059069;28;45373;-76
2021/09/24 00:45:25;;;;;;;;;44.50;37.00;;;;;13.41;74.00;101517.44;5058625;28;45426;-75
2021/09/24 00:47:51;;;;;;;;;43.25;37.25;;;;;13.43;74.11;101518.09;5058760;28;45240;-76
2021/09/24 00:50:17;;;;;;;;;44.50;37.25;;;;;13.43;73.95;101517.25;5058870;28;45591;-76
2021/09/24 00:52:42;;;;;;;;;44.50;38.25;;;;;13.39;73.94;101508.78;5058724;28;45288;-76
2021/09/24 00:55:09;;;;;;;;;47.25;38.00;;;;;13.35;73.97;101513.63;5059088;28;45315;-75
2021/09/24 00:57:34;;;;;;;;;45.00;39.00;;;;;13.33;74.06;101514.81;5058874;28;45336;-76
2021/09/24 01:00:00;;;;;;;;;47.25;38.25;;;;;13.30;74.07;101510.66;5061517;28;46056;-76
2021/09/24 01:02:26;;;;;;;;;47.50;39.00;;;;;13.23;73.86;101515.84;5062213;28;45206;-76
2021/09/24 01:04:52;;;;;;;;;44.50;37.00;;;;;13.19;74.13;101508.34;5062444;28;45409;-76
2021/09/24 01:07:17;;;;;;;;;44.50;37.25;;;;;13.15;74.05;101499.88;5062089;28;45394;-76
2021/09/24 01:09:43;;;;;;;;;43.75;37.00;;;;;13.10;73.92;101489.72;5062081;28;45350;-76
2021/09/24 01:12:09;;;;;;;;;43.50;36.00;;;;;13.13;74.04;101499.22;5062236;28;45393;-76
2021/09/24 01:14:35;;;;;;;;;45.00;38.25;;;;;13.08;73.92;101499.72;5062277;28;45331;-76
2021/09/24 01:17:01;;;;;;;;;42.25;33.75;;;;;13.02;74.03;101484.38;5061736;28;45326;-76
2021/09/24 01:19:27;;;;;;;;;44.25;38.25;;;;;12.97;74.28;101492.94;5061893;28;46131;-76
2021/09/24 01:21:53;;;;;;;;;47.25;40.75;;;;;12.97;74.66;101495.59;5061781;28;45283;-76
2021/09/24 01:24:19;;;;;;;;;45.25;39.00;;;;;12.96;74.93;101499.25;5061973;28;45160;-76
2021/09/24 01:26:54;;;;;;;;;44.00;37.50;;;;;12.93;75.24;101488.94;5061925;28;45403;-76
2021/09/24 01:29:22;;;;;;;;;45.25;39.00;;;;;12.94;75.06;101498.63;5061946;28;46296;-76
2021/09/24 01:31:48;;;;;;;;;44.25;37.50;;;;;12.91;75.17;101488.28;5081803;28;45307;-76
2021/09/24 01:34:13;;;;;;;;;48.00;39.75;;;;;12.98;75.05;101515.09;5082141;27;45374;-76
2021/09/24 01:36:39;;;;;;;;;45.50;38.25;;;;;12.99;74.88;101506.09;5081937;27;45521;-76
2021/09/24 01:39:07;;;;;;;;;43.50;37.00;;;;;13.00;74.30;101500.56;5081709;27;46129;-76
2021/09/24 01:41:33;;;;;;;;;40.50;34.75;;;;;12.98;74.51;101494.59;5082006;28;45278;-76
2021/09/24 01:43:59;;;;;;;;;37.00;33.50;;;;;13.00;74.12;101499.75;5081937;28;45290;-76
2021/09/24 01:46:24;;;;;;;;;44.00;37.00;;;;;12.98;74.16;101499.94;5081283;28;45344;-76
2021/09/24 01:48:50;;;;;;;;;43.50;36.00;;;;;12.97;74.33;101508.94;5081888;28;46212;-76
2021/09/24 01:51:15;;;;;;;;;43.75;37.75;;;;;12.95;73.88;101502.09;5081647;27;45267;-76
2021/09/24 01:53:41;;;;;;;;;42.00;36.50;;;;;12.93;73.96;101512.13;5081971;27;45293;-76
2021/09/24 01:56:07;;;;;;;;;43.25;37.00;;;;;12.94;74.03;101506.63;5080202;28;46615;-76
2021/09/24 01:58:32;;;;;;;;;44.00;37.00;;;;;12.94;74.03;101506.63;5081738;27;45796;-76
2021/09/24 02:00:58;;;;;;;;;43.50;35.00;;;;;12.94;74.03;101511.97;5081451;28;45310;-76
2021/09/24 02:03:23;;;;;;;;;42.50;36.75;;;;;12.98;74.12;101510.59;5080186;28;45399;-76
2021/09/24 02:05:49;;;;;;;;;41.75;36.75;;;;;12.96;74.31;101512.59;5081567;28;45314;-75
2021/09/24 02:08:14;;;;;;;;;40.00;34.75;;;;;12.98;74.70;101510.59;5081451;28;45348;-76
2021/09/24 02:10:40;;;;;;;;;40.75;35.00;;;;;13.03;74.77;101518.09;5080460;28;45350;-76
2021/09/24 02:13:06;;;;;;;;;36.25;32.75;;;;;13.05;75.07;101515.25;5081698;27;45243;-76
2021/09/24 02:15:31;;;;;;;;;32.00;30.33;;;;;13.06;75.16;101519.59;5081148;27;45310;-77
2021/09/24 02:17:57;;;;;;;;;43.25;35.00;;;;;13.12;75.62;101516.22;5081493;27;45574;-76
2021/09/24 02:20:22;;;;;;;;;37.75;33.00;;;;;13.18;75.82;101520.88;5081342;27;45383;-75
2021/09/24 02:22:48;;;;;;;;;39.00;33.50;;;;;13.20;76.15;101516.19;5081311;27;45543;-76
2021/09/24 02:25:14;;;;;;;;;43.00;35.67;;;;;13.26;76.05;101507.50;5081301;28;45298;-76
2021/09/24 02:27:39;;;;;;;;;46.00;36.75;;;;;13.36;76.40;101511.81;5081111;27;45968;-76
2021/09/24 02:30:06;;;;;;;;;40.67;35.33;;;;;13.41;76.51;101512.09;5074242;28;45208;-76
2021/09/24 02:32:32;;;;;;;;;40.33;33.33;;;;;13.46;76.24;101512.41;5061006;28;45335;-76
2021/09/24 02:34:58;;;;;;;;;39.50;33.25;;;;;13.57;76.51;101515.72;5060674;28;45271;-76
2021/09/24 02:37:23;;;;;;;;;39.00;33.33;;;;;13.60;76.27;101510.88;5060416;28;45346;-76
2021/09/24 02:39:49;;;;;;;;;41.33;33.33;;;;;13.68;76.70;101512.66;5060641;28;45313;-76
2021/09/24 02:42:15;;;;;;;;;45.00;37.50;;;;;13.70;76.84;101507.13;5060833;28;45310;-76
2021/09/24 02:44:40;;;;;;;;;38.00;34.00;;;;;13.76;76.65;101511.78;5060408;28;45410;-76
2021/09/24 02:47:08;;;;;;;;;35.33;31.33;;;;;13.82;76.93;101504.88;5060406;28;45758;-76
2021/09/24 02:49:37;;;;;;;;;41.67;33.00;;;;;13.84;76.79;101502.88;5060625;28;45209;-76
2021/09/24 02:52:06;;;;;;;;;36.67;33.67;;;;;13.88;77.12;101498.84;5060455;28;45445;-76
2021/09/24 02:54:31;;;;;;;;;31.33;30.33;;;;;13.92;77.21;101504.69;5060434;28;45318;-76
2021/09/24 02:56:57;;;;;;;;;38.00;34.00;;;;;13.94;77.07;101492.78;5060218;28;45266;-76
2021/09/24 02:59:23;;;;;;;;;31.00;29.00;;;;;13.96;76.85;101492.63;5060568;28;45212;-76
2021/09/24 03:01:49;;;;;;;;;34.33;30.33;;;;;14.06;76.85;101487.84;5060291;28;45395;-76
2021/09/24 03:04:14;;;;;;;;;31.33;29.67;;;;;14.10;76.99;101491.00;5060374;28;45546;-76
2021/09/24 03:06:40;;;;;;;;;32.33;29.33;;;;;14.12;76.94;101484.47;5060197;28;45593;-76
2021/09/24 03:09:07;;;;;;;;;29.00;28.33;;;;;14.16;76.92;101482.28;5060246;28;45223;-76
2021/09/24 03:11:32;;;;;;;;;32.00;30.00;;;;;14.19;76.60;101478.41;5060399;28;45395;-76
2021/09/24 03:13:58;;;;;;;;;31.00;29.67;;;;;14.23;76.85;101474.34;5060083;28;45284;-76
2021/09/24 03:16:24;;;;;;;;;33.00;29.33;;;;;14.25;76.76;101473.16;5059970;28;45334;-76
2021/09/24 03:18:50;;;;;;;;;31.33;28.00;;;;;14.29;77.15;101470.13;5060170;28;45379;-76
2021/09/24 03:21:17;;;;;;;;;33.00;30.33;;;;;14.30;76.92;101472.63;5059993;28;45312;-76
2021/09/24 03:23:43;;;;;;;;;29.00;26.67;;;;;14.32;76.72;101473.28;5059808;28;45262;-76
2021/09/24 03:26:09;;;;;;;;;25.00;25.00;;;;;14.32;76.87;101473.28;5059945;28;45264;-75
2021/09/24 03:28:34;;;;;;;;;26.67;25.00;;;;;14.35;76.71;101475.59;5060105;28;45229;-76
2021/09/24 03:31:00;;;;;;;;;25.33;25.33;;;;;14.38;76.71;101485.09;5073887;28;45170;-76
2021/09/24 03:33:25;;;;;;;;;26.33;25.67;;;;;14.38;76.67;101471.72;5080209;27;45247;-76
2021/09/24 03:35:51;;;;;;;;;28.33;27.67;;;;;14.39;76.74;101471.53;5080162;27;45324;-76
2021/09/24 03:38:17;;;;;;;;;26.00;24.00;;;;;14.41;76.67;101487.41;5079890;28;45341;-76
2021/09/24 03:40:42;;;;;;;;;28.33;23.67;;;;;14.43;76.87;101469.34;5080323;27;45336;-76
2021/09/24 03:43:08;;;;;;;;;26.67;26.67;;;;;14.49;76.75;101470.44;5080035;28;45410;-76
2021/09/24 03:45:33;;;;;;;;;27.00;24.67;;;;;14.51;76.68;101461.22;5079494;28;45389;-76
2021/09/24 03:47:59;;;;;;;;;27.33;25.00;;;;;14.54;76.72;101478.75;5079925;28;45325;-76
2021/09/24 03:50:25;;;;;;;;;28.67;25.33;;;;;14.59;76.79;101475.53;5080183;28;45282;-76
2021/09/24 03:52:52;;;;;;;;;23.67;22.33;;;;;14.57;76.73;101472.19;5079826;28;45438;-76
2021/09/24 03:55:18;;;;;;;;;24.33;21.00;;;;;14.59;76.93;101473.69;5079855;28;45289;-76
2021/09/24 03:57:43;;;;;;;;;25.67;25.33;;;;;14.64;76.81;101483.84;5079802;28;45199;-76
2021/09/24 04:00:09;;;;;;;;;24.00;24.00;;;;;14.64;76.70;101473.94;5079951;28;45499;-76
2021/09/24 04:02:35;;;;;;;;;28.67;27.33;;;;;14.71;76.66;101475.91;5079909;28;45215;-76
2021/09/24 04:05:00;;;;;;;;;28.67;26.33;;;;;14.73;76.77;101485.41;5078199;28;47911;-76
2021/09/24 04:07:26;;;;;;;;;29.00;28.33;;;;;14.70;76.58;101467.03;5079789;27;45281;-76
2021/09/24 04:09:51;;;;;;;;;27.00;26.00;;;;;14.73;76.72;101469.34;5079983;27;45512;-76
2021/09/24 04:12:17;;;;;;;;;28.67;27.67;;;;;14.75;76.65;101471.84;5079894;28;45444;-77
2021/09/24 04:14:43;;;;;;;;;30.67;28.67;;;;;14.74;76.95;101470.19;5079441;28;45329;-76
2021/09/24 04:17:08;;;;;;;;;28.67;28.67;;;;;14.76;76.65;101468.16;5079732;28;45363;-77
2021/09/24 04:19:34;;;;;;;;;26.00;26.00;;;;;14.74;76.91;101467.50;5079806;28;45298;-76
2021/09/24 04:21:59;;;;;;;;;21.33;21.33;;;;;14.79;76.70;101480.38;5079399;28;45294;-76
2021/09/24 04:24:25;;;;;;;;;23.33;22.33;;;;;14.81;76.90;101478.34;5079469;28;45416;-76
2021/09/24 04:26:51;;;;;;;;;22.33;22.00;;;;;14.86;76.78;101487.47;5079620;28;45345;-76
2021/09/24 04:29:16;;;;;;;;;24.33;24.00;;;;;14.88;76.83;101480.06;5079665;27;45280;-77
2021/09/24 04:31:42;;;;;;;;;25.67;24.33;;;;;14.90;76.98;101482.56;5059075;27;45239;-76
2021/09/24 04:34:09;;;;;;;;;22.67;22.33;;;;;14.93;76.74;101478.72;5060955;28;45298;-76
2021/09/24 04:36:35;;;;;;;;;25.00;23.67;;;;;14.94;76.92;101477.69;5062694;28;45224;-76
2021/09/24 04:39:02;;;;;;;;;27.00;20.67;;;;;14.92;77.05;101480.56;5062543;28;45547;-76
2021/09/24 04:41:28;;;;;;;;;23.00;22.67;;;;;14.91;76.96;101481.56;5062512;28;45496;-76
2021/09/24 04:43:53;;;;;;;;;24.00;23.67;;;;;14.95;77.09;101480.19;5062383;28;45361;-76
2021/09/24 04:46:19;;;;;;;;;21.67;18.67;;;;;14.97;77.00;101478.13;5062080;28;45402;-76
2021/09/24 04:48:45;;;;;;;;;21.00;20.00;;;;;14.97;76.83;101482.69;5062647;28;45330;-76
2021/09/24 04:51:10;;;;;;;;;20.67;20.00;;;;;14.97;76.89;101474.66;5062469;28;45487;-76
2021/09/24 04:53:36;;;;;;;;;19.00;17.67;;;;;14.96;77.09;101481.84;5060991;28;46108;-76
2021/09/24 04:56:02;;;;;;;;;19.67;19.33;;;;;14.94;77.10;101480.38;5062577;28;45290;-76
2021/09/24 04:58:27;;;;;;;;;23.00;22.00;;;;;14.91;77.15;101472.72;5062517;28;45394;-76
2021/09/24 05:00:53;;;;;;;;;20.67;19.00;;;;;14.87;77.18;101465.03;5062240;28;45267;-75
2021/09/24 05:03:18;;;;;;;;;24.00;23.00;;;;;14.97;77.24;101474.66;5062143;28;46307;-76
2021/09/24 05:05:44;;;;;;;;;19.00;18.67;;;;;14.96;77.40;101473.81;5062329;28;45247;-76
2021/09/24 05:08:10;;;;;;;;;20.67;20.67;;;;;15.01;77.29;101479.44;5062113;28;45405;-76
2021/09/24 05:10:37;;;;;;;;;15.67;15.00;;;;;14.96;77.36;101473.81;5062189;28;45200;-76
2021/09/24 05:13:02;;;;;;;;;25.67;23.67;;;;;14.93;77.44;101463.47;5062037;28;46349;-76
2021/09/24 05:15:28;;;;;;;;;26.00;23.67;;;;;14.95;77.79;101468.63;5061932;28;45343;-76
2021/09/24 05:17:54;;;;;;;;;18.00;18.00;;;;;14.96;77.63;101467.63;5062206;28;45304;-75
2021/09/24 05:20:20;;;;;;;;;19.33;19.33;;;;;14.98;77.51;101461.09;5062039;28;45283;-76
2021/09/24 05:22:45;;;;;;;;;20.67;18.67;;;;;14.97;77.71;101454.03;5061788;28;45314;-75
2021/09/24 05:25:12;;;;;;;;;22.33;21.33;;;;;14.96;77.62;101452.41;5061868;28;45383;-76
2021/09/24 05:27:38;;;;;;;;;22.33;22.33;;;;;15.00;77.71;101459.03;5062051;28;45270;-75
2021/09/24 05:30:05;;;;;;;;;20.33;18.00;;;;;15.02;77.83;101462.34;5061490;28;45239;-75
2021/09/24 05:32:30;;;;;;;;;26.67;25.33;;;;;15.05;77.47;101463.81;5061951;28;45268;-76
2021/09/24 05:34:56;;;;;;;;;23.00;20.33;;;;;15.09;77.82;101461.63;5061626;28;45284;-75
2021/09/24 05:37:21;;;;;;;;;22.00;20.33;;;;;15.11;77.65;101464.91;5061605;28;45450;-76
2021/09/24 05:39:47;;;;;;;;;24.67;23.33;;;;;15.11;77.68;101463.09;5061703;28;45343;-77
2021/09/24 05:42:14;;;;;;;;;25.67;25.00;;;;;15.11;77.55;101459.56;5061640;28;45621;-75
2021/09/24 05:44:40;;;;;;;;;29.00;27.00;;;;;15.17;77.65;101469.53;5060165;28;45331;-75
2021/09/24 05:47:05;;;;;;;;;25.00;24.67;;;;;15.18;77.49;101459.66;5061074;28;45494;-75
2021/09/24 05:49:31;;;;;;;;;27.00;23.67;;;;;15.20;77.58;101469.16;5061557;28;45341;-75
2021/09/24 05:51:59;;;;;;;;;30.00;27.67;;;;;15.19;77.56;101459.47;5061266;28;45279;-75
2021/09/24 05:54:25;;;;;;;;;29.00;25.33;;;;;15.26;77.29;101467.56;5061362;28;45291;-75
2021/09/24 05:56:52;;;;;;;;;25.33;24.33;;;;;15.26;77.12;101465.75;5061537;28;45264;-75
2021/09/24 05:59:18;;;;;;;;;28.00;25.33;;;;;15.26;77.26;101471.09;5061311;28;45422;-76
2021/09/24 06:01:45;;;;;;;;;25.00;24.00;;;;;15.24;77.31;101464.28;5060966;28;45335;-75
2021/09/24 06:04:10;;;;;;;;;27.67;27.33;;;;;15.23;77.68;101466.13;5061239;28;45310;-75
2021/09/24 06:06:36;;;;;;;;;25.00;23.00;;;;;15.21;77.59;101468.16;5061283;28;45521;-75
2021/09/24 06:09:02;;;;;;;;;29.00;28.00;;;;;15.27;77.31;101469.25;5061289;28;45362;-75
2021/09/24 06:11:29;;;;;;;;;23.67;23.67;;;;;15.28;77.60;101462.88;5060935;28;45298;-77
2021/09/24 06:13:54;;;;;;;;;25.67;25.00;;;;;15.27;77.39;101458.53;5059871;28;45482;-78
2021/09/24 06:16:20;;;;;;;;;28.33;27.33;;;;;15.29;77.62;101467.19;5060029;28;45230;-76
2021/09/24 06:18:46;;;;;;;;;27.33;22.33;;;;;15.33;77.63;101465.00;5060394;28;45169;-76
2021/09/24 06:21:12;;;;;;;;;29.00;26.67;;;;;15.32;77.84;101466.84;5060233;28;46141;-76
2021/09/24 06:23:39;;;;;;;;;32.33;28.00;;;;;15.32;77.70;101466.03;5058738;28;45334;-76
2021/09/24 06:26:05;;;;;;;;;30.00;26.67;;;;;15.33;77.67;101468.50;5060074;28;45430;-77
2021/09/24 06:28:31;;;;;;;;;31.00;28.33;;;;;15.35;77.50;101473.66;5059457;28;45347;-75
2021/09/24 06:30:59;;;;;;;;;33.00;30.00;;;;;15.36;77.73;101473.47;5062239;28;46105;-75
2021/09/24 06:33:25;;;;;;;;;30.33;29.00;;;;;15.42;77.90;101476.41;5059943;28;45670;-76
2021/09/24 06:35:52;;;;;;;;;32.67;29.00;;;;;15.43;77.69;101468.19;5060520;28;45358;-77
2021/09/24 06:38:18;;;;;;;;;31.00;29.00;;;;;15.45;77.47;101468.84;5060353;28;45326;-75
2021/09/24 06:40:43;;;;;;;;;27.67;27.67;;;;;15.51;77.71;101472.63;5060462;28;46230;-76
2021/09/24 06:43:09;;;;;;;;;28.33;26.00;;;;;15.54;77.42;101469.56;5060604;28;45375;-75
2021/09/24 06:45:36;;;;;;;;;33.67;30.00;;;;;15.56;77.38;101466.69;5060354;28;45346;-75
2021/09/24 06:48:01;;;;;;;;;31.00;27.00;;;;;15.63;77.14;101467.59;5060312;28;45269;-75
2021/09/24 06:50:27;;;;;;;;;32.00;29.33;;;;;15.63;77.75;101468.41;5060459;28;45271;-76
2021/09/24 06:52:53;;;;;;;;;28.67;25.00;;;;;15.68;77.15;101465.16;5060467;28;45258;-75
2021/09/24 06:55:22;;;;;;;;;30.00;26.33;;;;;15.73;77.29;101461.91;5060634;28;45231;-75
2021/09/24 06:57:48;;;;;;;;;30.67;29.33;;;;;15.76;77.47;101470.41;5060007;28;45335;-75
2021/09/24 07:00:15;;;;;;;;;29.33;27.67;;;;;15.83;77.02;101472.31;5060104;28;45358;-75
2021/09/24 07:02:41;;;;;;;;;32.33;28.67;;;;;15.83;76.69;101467.78;5060251;28;45393;-76
2021/09/24 07:05:07;;;;;;;;;27.33;27.00;;;;;15.86;76.58;101464.72;5060284;28;45306;-80
2021/09/24 07:07:32;;;;;;;;;29.67;28.33;;;;;15.89;76.75;101471.53;5060167;28;45512;-78
2021/09/24 07:09:58;;;;;;;;;30.00;28.33;;;;;15.93;76.53;101469.31;5059973;28;46211;-77
2021/09/24 07:12:24;;;;;;;;;34.00;30.00;;;;;15.99;76.95;101465.88;5060260;28;45212;-78
2021/09/24 07:14:50;;;;;;;;;33.33;29.33;;;;;16.03;76.51;101470.69;5060117;28;45174;-79
2021/09/24 07:17:15;;;;;;;;;29.00;28.33;;;;;16.05;76.75;101458.94;5059823;28;45214;-76
2021/09/24 07:19:41;;;;;;;;;33.00;30.67;;;;;16.01;76.50;101463.84;5060139;28;45331;-76
2021/09/24 07:22:09;;;;;;;;;30.33;29.00;;;;;15.98;76.99;101464.25;5059610;28;45543;-81
2021/09/24 07:24:34;;;;;;;;;30.67;29.67;;;;;15.90;76.77;101451.75;5060071;28;45271;-82
2021/09/24 07:27:00;;;;;;;;;32.67;30.33;;;;;15.90;76.90;101459.81;5059864;28;45438;-82
2021/09/24 07:29:25;;;;;;;;;36.33;29.33;;;;;15.92;77.06;101460.44;5059585;28;45905;-79
2021/09/24 07:31:51;;;;;;;;;31.67;28.67;;;;;15.86;76.99;101455.84;5059898;28;45374;-82
2021/09/24 07:34:17;;;;;;;;;36.67;32.67;;;;;15.89;76.74;101463.50;5060009;28;45177;-81
2021/09/24 07:36:43;;;;;;;;;38.33;32.00;;;;;15.89;76.74;101458.97;5059682;28;45483;-78
2021/09/24 07:39:08;;;;;;;;;35.33;30.33;;;;;15.88;76.76;101459.16;5059594;28;45907;-79
2021/09/24 07:41:34;;;;;;;;;32.33;28.67;;;;;15.85;77.09;101454.19;5059225;28;45312;-79
2021/09/24 07:44:03;;;;;;;;;29.33;28.33;;;;;15.82;77.06;101451.88;5057860;28;45283;-83
2021/09/24 07:46:28;;;;;;;;;28.33;25.00;;;;;15.88;77.08;101460.00;5059182;28;45284;-80
2021/09/24 07:48:54;;;;;;;;;24.00;22.67;;;;;15.94;77.20;101462.91;5059183;28;45347;-79
2021/09/24 07:51:19;;;;;;;;;28.67;25.67;;;;;15.89;76.94;101448.25;5059531;28;45390;-79
2021/09/24 07:53:45;;;;;;;;;27.33;23.33;;;;;15.96;76.82;101455.53;5058842;28;45264;-82
2021/09/24 07:56:11;;;;;;;;;22.67;21.33;;;;;15.97;76.65;101462.56;5059468;28;45358;-81
2021/09/24 07:58:38;;;;;;;;;22.00;22.00;;;;;15.96;77.04;101455.53;5058565;28;45435;-82
2021/09/24 08:01:08;;;;;;;;;32.00;29.00;;;;;16.01;77.12;101456.63;5057221;28;45256;-79
2021/09/24 08:03:35;;;;;;;;;24.67;23.67;;;;;16.01;77.37;101455.78;5059561;28;45442;-78
2021/09/24 08:06:01;;;;;;;;;30.33;28.67;;;;;16.05;76.30;101458.94;5059246;28;45312;-79
2021/09/24 08:08:27;;;;;;;;;31.00;28.00;;;;;16.05;76.71;101458.94;5060078;28;45367;-80
2021/09/24 08:10:53;;;;;;;;;31.00;28.00;;;;;16.02;76.73;101458.28;5062840;28;45298;-81
2021/09/24 08:13:18;;;;;;;;;26.67;25.67;;;;;16.07;76.83;101454.22;5061542;28;45229;-78
2021/09/24 08:15:45;;;;;;;;;35.00;32.00;;;;;16.11;76.81;101460.84;5062687;28;45481;-79
2021/09/24 08:18:13;;;;;;;;;56.00;43.75;;;;;16.10;76.99;101454.63;5062309;28;45280;-78
2021/09/24 08:20:43;;;;;;;;;48.00;39.67;;;;;16.11;76.58;101464.34;5052719;28;45500;-82
2021/09/24 08:23:09;;;;;;;;;38.33;33.67;;;;;16.14;76.81;101465.81;5053397;28;45353;-78
2021/09/24 08:25:35;;;;;;;;;22.67;22.67;;;;;16.14;77.04;101468.50;5058972;28;45495;-78
2021/09/24 08:28:00;;;;;;;;;42.67;35.67;;;;;16.10;77.53;101468.03;5059856;28;46044;-79
2021/09/24 08:30:27;;;;;;;;;28.33;26.67;;;;;16.16;77.03;101466.44;5058063;28;45862;-81
2021/09/24 08:32:54;;;;;;;;;29.33;28.33;;;;;16.16;76.93;101471.78;5056534;28;45727;-83
2021/09/24 08:35:21;;;;;;;;;31.33;28.67;;;;;16.22;76.97;101475.56;5056776;28;45591;-83
2021/09/24 08:37:49;;;;;;;;;25.00;23.00;;;;;16.23;77.34;101475.38;5050826;28;45968;-83
2021/09/24 08:40:16;;;;;;;;;22.67;21.67;;;;;16.18;77.04;101475.13;5058086;28;45439;-81
2021/09/24 08:42:45;;;;;;;;;22.00;21.00;;;;;16.24;77.16;101478.88;5055727;28;45395;-81
2021/09/24 08:45:12;;;;;;;;;24.67;22.33;;;;;16.27;77.10;101460.56;5057733;28;45608;-79
2021/09/24 08:47:39;;;;;;;;;33.67;31.67;;;;;16.41;77.19;101471.38;5052547;28;45446;-77
2021/09/24 08:50:07;;;;;;;;;24.67;20.67;;;;;16.42;76.87;101462.31;5053472;28;45311;-79
2021/09/24 08:52:35;;;;;;;;;20.67;20.67;;;;;16.46;77.19;101458.19;5054391;28;45449;-79
2021/09/24 08:55:03;;;;;;;;;19.67;18.00;;;;;16.52;76.99;101465.47;5048646;28;45486;-82
2021/09/24 08:57:29;;;;;;;;;18.00;18.00;;;;;16.59;77.11;101468.22;5071787;28;46464;-80
2021/09/24 08:59:54;;;;;;;;;16.67;16.67;;;;;16.64;77.15;101481.03;5056216;28;45456;-79
2021/09/24 09:02:20;;;;;;;;;22.33;19.00;;;;;16.69;76.82;101473.22;5053275;28;45307;-77
2021/09/24 09:04:46;;;;;;;;;22.67;20.33;;;;;16.76;76.73;101474.06;5053981;28;45277;-78
2021/09/24 09:07:17;;;;;;;;;18.67;18.67;;;;;16.88;77.02;101485.06;5058914;28;45358;-79
2021/09/24 09:09:45;;;;;;;;;14.33;14.33;;;;;16.97;76.53;101480.38;5073925;28;45342;-79
2021/09/24 09:12:16;;;;;;;;;18.67;17.33;;;;;17.09;76.48;101477.97;5056781;28;45217;-79
2021/09/24 09:15:13;;;;;;;;;17.67;14.00;;;;;17.21;75.48;101467.47;5059568;28;45501;-79
2021/09/24 09:17:40;;;;;;;;;14.67;14.33;;;;;17.31;74.90;101469.81;5058479;28;45293;-80
2021/09/24 09:20:23;;;;;;;;;16.00;13.33;;;;;17.46;74.44;101480.41;5055791;28;45349;-78
2021/09/24 09:22:51;;;;;;;;;15.00;13.00;;;;;17.56;74.03;101480.00;5069229;28;45404;-81
2021/09/24 09:25:25;;;;;;;;;17.00;17.00;;;;;17.66;74.22;101485.81;5050271;28;45410;-81
2021/09/24 09:27:53;;;;;;;;;18.33;17.00;;;;;17.77;72.87;101480.84;5072607;28;47059;-79
2021/09/24 09:30:19;;;;;;;;;19.33;19.33;;;;;17.79;73.18;101476.13;5053883;28;45440;-78
2021/09/24 09:33:00;;;;;;;;;21.33;20.33;;;;;17.98;72.92;101479.03;5057596;28;45580;-78
2021/09/24 09:35:27;;;;;;;;;21.67;20.00;;;;;18.08;72.99;101481.31;5055776;28;45474;-79
2021/09/24 09:37:53;;;;;;;;;14.67;14.00;;;;;18.21;73.30;101483.19;5054359;28;45441;-81
2021/09/24 09:40:21;;;;;;;;;18.33;17.33;;;;;18.30;72.46;101484.66;5058105;28;45433;-78
2021/09/24 09:42:48;;;;;;;;;16.00;16.00;;;;;18.39;72.03;101477.19;5057481;28;45334;-78
2021/09/24 09:45:17;;;;;;;;;13.00;12.67;;;;;18.49;72.36;101477.59;5058006;28;45709;-78
2021/09/24 09:47:47;;;;;;;;;15.67;13.67;;;;;18.59;71.89;101479.03;5052214;28;45385;-81
2021/09/24 09:50:23;;;;;;;;;19.33;17.33;;;;;18.68;71.23;101477.78;5060098;28;45488;-81
2021/09/24 09:53:26;;;;;;;;;19.00;18.00;;;;;18.78;71.50;101475.47;5054936;28;45326;-77
2021/09/24 09:55:57;;;;;;;;;15.67;15.67;;;;;18.85;71.04;101464.66;5026140;28;45477;-80
2021/09/24 09:58:25;;;;;;;;;17.67;16.67;;;;;18.93;70.85;101460.91;5054729;28;47558;-81
2021/09/24 10:01:04;;;;;;;;;15.33;15.00;;;;;19.13;69.71;101473.50;5052196;28;45528;-82
2021/09/24 10:03:42;;;;;;;;;17.33;15.67;;;;;19.15;69.96;101464.16;5049296;28;45379;-84
2021/09/24 10:06:29;;;;;;;;;14.33;13.00;;;;;19.25;70.09;101444.81;5054278;28;45802;-84
2021/09/24 10:08:57;;;;;;;;;16.00;15.00;;;;;19.45;70.22;101459.25;5057247;28;45437;-87
2021/09/24 10:11:33;;;;;;;;;17.67;16.33;;;;;19.58;69.15;101461.03;5060347;28;45323;-83
2021/09/24 10:14:04;;;;;;;;;18.33;16.33;;;;;19.62;69.05;101455.00;5060750;28;45516;-82
2021/09/24 10:16:34;;;;;;;;;20.33;16.67;;;;;19.77;68.83;101459.25;5060887;28;45375;-79
2021/09/24 10:19:01;;;;;;;;;19.33;17.33;;;;;19.86;67.81;101457.09;5062201;28;45398;-79
2021/09/24 10:21:28;;;;;;;;;18.00;15.67;;;;;19.89;68.03;101456.66;5060957;28;45183;-80
2021/09/24 10:23:54;;;;;;;;;18.33;18.33;;;;;19.88;67.64;101446.94;5062177;28;45412;-80
2021/09/24 10:26:47;;;;;;;;;16.67;15.67;;;;;19.93;68.46;101453.31;5062306;28;45366;-78
2021/09/24 10:29:29;;;;;;;;;16.67;14.67;;;;;20.02;67.22;101450.38;5063777;28;45363;-80
2021/09/24 10:31:55;;;;;;;;;20.33;19.67;;;;;19.94;67.46;101432.56;5042486;28;45308;-78
2021/09/24 10:34:28;;;;;;;;;17.00;14.67;;;;;20.09;66.95;101456.53;5044147;28;45407;-80
2021/09/24 10:36:55;;;;;;;;;20.33;19.33;;;;;20.15;65.89;101458.38;5045813;28;45240;-80
2021/09/24 10:39:29;;;;;;;;;20.00;20.00;;;;;20.08;65.46;101446.78;5045031;28;45268;-77
2021/09/24 10:42:22;;;;;;;;;18.00;18.00;;;;;20.06;65.84;101448.88;5048339;28;45213;-79
2021/09/24 10:45:15;;;;;;;;;20.67;20.67;;;;;20.02;65.23;101450.38;5050087;28;45367;-79
2021/09/24 10:47:45;;;;;;;;;20.67;20.67;;;;;20.02;64.88;101448.50;5054902;28;45446;-79
2021/09/24 10:50:29;;;;;;;;;21.67;19.00;;;;;20.05;64.90;101453.44;5066928;28;45354;-75
2021/09/24 10:53:22;;;;;;;;;22.33;20.67;;;;;20.16;65.64;101453.78;5064618;28;45263;-75
2021/09/24 10:55:54;;;;;;;;;20.33;17.33;;;;;20.26;65.78;101451.41;5059375;28;45274;-78
2021/09/24 10:58:31;;;;;;;;;23.00;22.00;;;;;20.40;64.19;101441.31;5059646;28;45302;-76
2021/09/24 11:01:05;;;;;;;;;18.33;18.00;;;;;20.53;64.78;101434.94;5057706;28;47295;-76
2021/09/24 11:03:31;;;;;;;;;21.67;19.00;;;;;20.61;64.34;101422.16;5058328;28;45521;-78
2021/09/24 11:06:06;;;;;;;;;18.67;18.67;;;;;20.81;63.83;101427.34;5062058;28;45414;-78
2021/09/24 11:08:38;;;;;;;;;22.33;21.67;;;;;20.92;64.25;101432.00;5060218;28;45386;-80
2021/09/24 11:11:21;;;;;;;;;20.00;20.00;;;;;21.00;63.60;101427.34;5059935;28;46406;-79